• Join FlightAware (Why Join?)
  • Login
  • US Flag 
06:39PM EDT


 

Airport Tracker/Info


-or-


 

Live Flight TrackerFlight Track Log ✈ N3343S ✈ 21-Apr-2013 ✈ 2J0 - KCSG

Flight Track Log - Related Links

Times and Time Zones

All times are in EDT time to prevent confusion due to time zone crossing. See the N3343S flight status page for this flight to view local times or setup timezone preferences in your user account.

Time Position Orientation Groundspeed Altitude Reporting Facility
EDT Latitude Longitude Course Direction KTS MPH feet Rate Location/Type
12:59PM 31.0331 -84.7983 356° North 138 159 5,500  Level Jacksonville Center
01:00PM 31.0728 -84.8014 356° North 138 159 5,500  Level Jacksonville Center
01:01PM 31.1081 -84.8069 352° North 138 159 5,600  Climbing Jacksonville Center
01:02PM 31.1456 -84.8128 352° North 138 159 5,600  Level Jacksonville Center
01:03PM 31.1811 -84.8183 352° North 138 159 5,600  Level Jacksonville Center
01:04PM 31.2206 -84.8239 353° North 133 153 5,600  Level Jacksonville Center
01:05PM 31.2561 -84.8294 352° North 128 147 5,600 -60 Level Jacksonville Center
01:06PM 31.2917 -84.8303 359° North 128 147 5,500  Descending Jacksonville Center
01:07PM 31.3292 -84.8311 359° North 128 147 5,600  Climbing Jacksonville Center
01:08PM 31.3644 -84.8367 352° North 123 142 5,500 -60 Descending Jacksonville Center
01:09PM 31.4022 -84.8372 359° North 123 142 5,500  Level Jacksonville Center
01:10PM 31.4356 -84.8381 359° North 123 142 5,500  Level Jacksonville Center
01:11PM 31.4708 -84.8411 356° North 123 142 5,500  Level Jacksonville Center
01:12PM 31.5106 -84.8469 353° North 123 142 5,600  Climbing Jacksonville Center
01:13PM 31.5458 -84.8500 356° North 123 142 5,600  Level Jacksonville Center
01:14PM 31.5833 -84.8558 352° North 123 142 5,600  Level Jacksonville Center
01:15PM 31.6169 -84.8589 356° North 123 142 5,600  Level Jacksonville Center
01:16PM 31.6522 -84.8622 355° North 123 142 5,600 -60 Level Jacksonville Center
01:18PM 31.7333 -84.8833 348° North 132 152 5,500 -120 Descending Atlanta TRACON
01:19PM 31.7667 -84.8833 360° North 132 152 5,400 -60 Descending Atlanta TRACON
01:20PM 31.8167 -84.8833 360° North 129 148 5,400 -60 Level Atlanta TRACON
01:21PM 31.8500 -84.8833 360° North 128 147 5,300 -120 Descending Atlanta TRACON
01:22PM 31.8833 -84.8833 360° North 129 148 5,200 -180 Descending Atlanta TRACON
01:23PM 31.9167 -84.8833 360° North 133 153 5,000 -300 Descending Atlanta TRACON
01:24PM 31.9500 -84.9000 337° Northwest 129 148 4,700 -300 Descending Atlanta TRACON
01:25PM 31.9833 -84.9000 360° North 125 144 4,400 -300 Descending Atlanta TRACON
01:26PM 32.0167 -84.9167 337° Northwest 126 145 4,200 -300 Descending Atlanta TRACON
01:27PM 32.0500 -84.9167 360° North 125 144 3,900 -360 Descending Atlanta TRACON
01:28PM 32.0833 -84.9167 360° North 119 137 3,500 -300 Descending Atlanta TRACON
01:29PM 32.1167 -84.9167 360° North 119 137 3,300  Descending Atlanta TRACON
01:30PM 32.1500 -84.9167 360° North 115 132 3,600  Climbing Atlanta TRACON
01:31PM 32.1833 -84.9333 337° Northwest 119 137 3,300 -180 Descending Atlanta TRACON
01:32PM 32.2167 -84.9333 360° North 119 137 3,300 -120 Level Atlanta TRACON
01:33PM 32.2500 -84.9333 360° North 125 144 3,100 -240 Descending Atlanta TRACON
01:34PM 32.2833 -84.9500 337° Northwest 116 133 2,900 -120 Descending Atlanta TRACON
01:35PM 32.3167 -84.9500 360° North 112 129 2,900  Level Atlanta TRACON
01:36PM 32.3500 -84.9500 360° North 114 131 2,900  Level Atlanta TRACON
01:37PM 32.3833 -84.9667 337° Northwest 115 132 2,900 -180 Level Atlanta TRACON
01:38PM 32.4167 -84.9667 360° North 124 143 2,600 -480 Descending Atlanta TRACON
01:39PM 32.4500 -84.9833 337° Northwest 110 127 2,000 -240 Descending Atlanta TRACON
01:40PM 32.4667 -85.0000 320° Northwest 115 132 2,200 -120 Climbing Atlanta TRACON
01:41PM 32.5000 -85.0000 360° North 109 125 1,800 -300 Descending Atlanta TRACON
01:42PM 32.5333 -85.0000 360° North 99 114 1,700 -300 Descending Atlanta TRACON
01:43PM 32.5333 -84.9833 90° East 78 90 1,200 -480 Descending Atlanta TRACON
01:44PM 32.5333 -84.9500 90° East 74 85 800 -480 Descending Atlanta TRACON
01:46PM 32.5163 -84.9389 North  Level Estimated
01:53PM 32.5163 -84.9389 North  Level Estimated
01:54PM 32.5163 -84.9389 North  Level Estimated